createdAt,value
2022-11-28T00:01:26.409Z,7.10
2022-11-28T00:03:53.200Z,7.00
2022-11-28T00:06:19.992Z,7.00
2022-11-28T00:08:47.150Z,7.00
2022-11-28T00:11:15.770Z,6.90
2022-11-28T00:13:42.831Z,7.00
2022-11-28T00:16:21.136Z,6.90
2022-11-28T00:18:49.117Z,6.90
2022-11-28T00:21:16.421Z,6.90
2022-11-28T00:23:44.867Z,6.90
2022-11-28T00:26:19.663Z,6.90
2022-11-28T00:28:46.485Z,7.00
2022-11-28T00:31:18.968Z,6.90
2022-11-28T00:33:46.135Z,6.90
2022-11-28T00:36:13.738Z,6.90
2022-11-28T00:38:41.421Z,6.90
2022-11-28T00:41:16.524Z,6.90
2022-11-28T00:43:44.821Z,6.90
2022-11-28T00:46:13.306Z,6.90
2022-11-28T00:48:40.676Z,6.80
2022-11-28T00:51:12.783Z,6.80
2022-11-28T00:53:42.340Z,6.80
2022-11-28T00:56:11.608Z,6.90
2022-11-28T00:58:39.264Z,6.90
2022-11-28T01:01:33.837Z,6.80
2022-11-28T01:04:03.479Z,6.70
2022-11-28T01:06:33.268Z,6.70
2022-11-28T01:09:03.448Z,6.70
2022-11-28T01:11:30.216Z,6.70
2022-11-28T01:13:59.126Z,6.60
2022-11-28T01:16:26.500Z,6.60
2022-11-28T01:18:53.226Z,6.60
2022-11-28T01:21:20.653Z,6.60
2022-11-28T01:23:47.596Z,6.60
2022-11-28T01:26:25.863Z,6.60
2022-11-28T01:28:52.942Z,6.60
2022-11-28T01:31:22.497Z,6.70
2022-11-28T01:33:49.852Z,6.70
2022-11-28T01:36:17.847Z,6.60
2022-11-28T01:38:45.076Z,6.70
2022-11-28T01:41:17.400Z,6.60
2022-11-28T01:44:03.263Z,6.70
2022-11-28T01:46:30.572Z,6.70
2022-11-28T01:49:11.712Z,6.70
2022-11-28T01:51:40.889Z,6.70
2022-11-28T01:54:07.825Z,6.60
2022-11-28T01:56:51.070Z,6.60
2022-11-28T01:59:19.326Z,6.60
2022-11-28T02:01:46.618Z,6.70
2022-11-28T02:04:14.538Z,6.70
2022-11-28T02:06:42.632Z,6.70
2022-11-28T02:09:14.694Z,6.60
2022-11-28T02:11:44.413Z,6.60
2022-11-28T02:14:25.988Z,6.60
2022-11-28T02:17:01.552Z,6.60
2022-11-28T02:20:12.090Z,6.60
2022-11-28T02:22:49.423Z,6.60
2022-11-28T02:25:32.419Z,6.60
2022-11-28T02:28:22.611Z,6.60
2022-11-28T02:31:10.695Z,6.60
2022-11-28T02:33:51.198Z,6.50
2022-11-28T02:36:45.788Z,6.50
2022-11-28T02:39:42.457Z,6.40
2022-11-28T02:42:18.797Z,6.40
2022-11-28T02:44:58.808Z,6.40
2022-11-28T02:47:31.848Z,6.50
2022-11-28T02:50:13.210Z,6.50
2022-11-28T02:52:44.897Z,6.50
2022-11-28T02:55:12.945Z,6.60
2022-11-28T02:57:42.726Z,6.50
2022-11-28T03:00:43.587Z,6.50
2022-11-28T03:03:16.495Z,6.60
2022-11-28T03:05:51.421Z,6.60
2022-11-28T03:08:29.925Z,6.60
2022-11-28T03:11:06.128Z,6.70
2022-11-28T03:13:39.810Z,6.70
2022-11-28T03:16:13.858Z,6.70
2022-11-28T03:18:55.481Z,6.60
2022-11-28T03:21:28.289Z,6.60
2022-11-28T03:24:19.593Z,6.70
2022-11-28T03:26:54.987Z,6.70
2022-11-28T03:29:36.921Z,6.60
2022-11-28T03:32:08.140Z,6.60
2022-11-28T03:34:39.169Z,6.50
2022-11-28T03:37:19.101Z,6.50
2022-11-28T03:39:51.396Z,6.50
2022-11-28T03:42:23.901Z,6.60
2022-11-28T03:45:02.851Z,6.50
2022-11-28T03:47:34.090Z,6.60
2022-11-28T03:50:07.942Z,6.60
2022-11-28T03:52:41.165Z,6.60
2022-11-28T03:55:18.411Z,6.50
2022-11-28T03:57:48.674Z,6.60
2022-11-28T04:00:16.248Z,6.60
2022-11-28T04:02:55.236Z,6.60
2022-11-28T04:05:30.585Z,6.60
2022-11-28T04:08:15.765Z,6.60
2022-11-28T04:10:47.764Z,6.60
2022-11-28T04:13:21.413Z,6.50
2022-11-28T04:16:13.502Z,6.50
2022-11-28T04:18:55.124Z,6.60
2022-11-28T04:21:30.511Z,6.60
2022-11-28T04:24:02.670Z,6.60
2022-11-28T04:26:34.160Z,6.50
2022-11-28T04:29:05.816Z,6.50
2022-11-28T04:31:33.900Z,6.60
2022-11-28T04:34:06.117Z,6.60
2022-11-28T04:36:35.466Z,6.50
2022-11-28T04:39:03.530Z,6.60
2022-11-28T04:41:52.997Z,6.60
2022-11-28T04:44:35.213Z,6.60
2022-11-28T04:47:02.405Z,6.60
2022-11-28T04:49:30.301Z,6.60
2022-11-28T04:52:27.295Z,6.60
2022-11-28T04:55:28.341Z,6.60
2022-11-28T04:58:08.176Z,6.50
2022-11-28T05:00:36.501Z,6.40
2022-11-28T05:03:04.665Z,6.40
2022-11-28T05:05:31.746Z,6.40
2022-11-28T05:07:59.475Z,6.40
2022-11-28T05:10:26.276Z,6.40
2022-11-28T05:12:52.866Z,6.40
2022-11-28T05:15:19.527Z,6.40
2022-11-28T05:17:46.739Z,6.40
2022-11-28T05:20:13.754Z,6.40
2022-11-28T05:22:40.362Z,6.40
2022-11-28T05:25:07.304Z,6.40
2022-11-28T05:27:33.914Z,6.50
2022-11-28T05:30:00.511Z,6.40
2022-11-28T05:32:31.111Z,6.40
2022-11-28T05:34:58.084Z,6.40
2022-11-28T05:37:25.372Z,6.40
2022-11-28T05:39:52.137Z,6.50
2022-11-28T05:42:18.779Z,6.40
2022-11-28T05:44:45.443Z,6.40
2022-11-28T05:47:12.060Z,6.40
2022-11-28T05:49:38.664Z,6.40
2022-11-28T05:52:05.329Z,6.40
2022-11-28T05:54:32.127Z,6.30
2022-11-28T05:56:58.881Z,6.30
2022-11-28T05:59:25.496Z,6.40
2022-11-28T06:01:52.318Z,6.40
2022-11-28T06:04:19.059Z,6.40
2022-11-28T06:06:45.725Z,6.30
2022-11-28T06:09:12.410Z,6.30
2022-11-28T06:11:39.030Z,6.30
2022-11-28T06:14:05.878Z,6.30
2022-11-28T06:16:32.555Z,6.30
2022-11-28T06:19:01.770Z,6.40
2022-11-28T06:21:29.469Z,6.30
2022-11-28T06:23:57.754Z,6.40
2022-11-28T06:26:25.665Z,6.40
2022-11-28T06:28:52.888Z,6.30
2022-11-28T06:31:24.758Z,6.40
2022-11-28T06:33:51.638Z,6.30
2022-11-28T06:36:19.568Z,6.30
2022-11-28T06:38:46.948Z,6.20
2022-11-28T06:41:16.339Z,6.20
2022-11-28T06:43:43.505Z,6.30
2022-11-28T06:46:16.426Z,6.30
2022-11-28T06:48:44.547Z,6.30
2022-11-28T06:51:12.412Z,6.30
2022-11-28T06:53:39.325Z,6.30
2022-11-28T06:56:14.604Z,6.40
2022-11-28T06:58:41.917Z,6.40
2022-11-28T07:01:18.892Z,6.30
2022-11-28T07:03:46.202Z,6.30
2022-11-28T07:06:14.549Z,6.20
2022-11-28T07:08:41.411Z,6.30
2022-11-28T07:11:09.506Z,6.20
2022-11-28T07:13:36.516Z,6.30
2022-11-28T07:16:03.672Z,6.30
2022-11-28T07:18:30.297Z,6.30
2022-11-28T07:20:56.993Z,6.30
2022-11-28T07:23:23.629Z,6.30
2022-11-28T07:25:50.245Z,6.30
2022-11-28T07:28:20.673Z,6.30
2022-11-28T07:30:49.791Z,6.20
2022-11-28T07:33:16.433Z,6.30
2022-11-28T07:35:43.037Z,6.30
2022-11-28T07:38:09.672Z,6.20
2022-11-28T07:40:36.402Z,6.20
2022-11-28T07:43:02.999Z,6.10
2022-11-28T07:45:53.520Z,6.20
2022-11-28T07:48:16.236Z,6.20
2022-11-28T07:50:42.893Z,6.20
2022-11-28T07:53:09.508Z,6.30
2022-11-28T07:55:36.497Z,6.40
2022-11-28T07:58:04.505Z,6.40
2022-11-28T08:00:31.758Z,6.40
2022-11-28T08:02:58.668Z,6.40
2022-11-28T08:05:25.614Z,6.40
2022-11-28T08:07:52.302Z,6.40
2022-11-28T08:10:19.559Z,6.40
2022-11-28T08:12:46.221Z,6.30
2022-11-28T08:15:12.914Z,6.30
2022-11-28T08:17:39.529Z,6.30
2022-11-28T08:20:07.291Z,6.30
2022-11-28T08:22:33.883Z,6.30
2022-11-28T08:25:00.593Z,6.30
2022-11-28T08:27:27.233Z,6.30
2022-11-28T08:29:54.330Z,6.40
2022-11-28T08:32:21.129Z,6.40
2022-11-28T08:34:47.719Z,6.40
2022-11-28T08:37:14.335Z,6.40
2022-11-28T08:39:41.337Z,6.40
2022-11-28T08:42:08.180Z,6.40
2022-11-28T08:44:35.057Z,6.30
2022-11-28T08:47:01.729Z,6.30
2022-11-28T08:49:28.457Z,6.40
2022-11-28T08:51:55.125Z,6.50
2022-11-28T08:54:21.828Z,6.40
2022-11-28T08:56:48.499Z,6.40
2022-11-28T08:59:15.216Z,6.40
2022-11-28T09:01:41.894Z,6.40
2022-11-28T09:04:08.650Z,6.40
2022-11-28T09:06:36.578Z,6.50
2022-11-28T09:09:03.394Z,6.50
2022-11-28T09:11:31.470Z,6.50
2022-11-28T09:13:59.601Z,6.50
2022-11-28T09:16:26.256Z,6.40
2022-11-28T09:18:53.829Z,6.50
2022-11-28T09:21:20.459Z,6.50
2022-11-28T09:23:47.388Z,6.40
2022-11-28T09:26:16.449Z,6.50
2022-11-28T09:28:44.169Z,6.50
2022-11-28T09:31:15.063Z,6.60
2022-11-28T09:33:42.482Z,6.70
2022-11-28T09:36:12.269Z,6.70
2022-11-28T09:38:39.288Z,6.70
2022-11-28T09:41:24.126Z,6.70
2022-11-28T09:43:55.113Z,6.70
2022-11-28T09:46:28.846Z,6.80
2022-11-28T09:48:59.616Z,6.70
2022-11-28T09:51:39.449Z,6.70
2022-11-28T09:54:37.483Z,6.70
2022-11-28T09:57:12.309Z,6.70
2022-11-28T09:59:38.988Z,6.80
2022-11-28T10:02:38.786Z,6.90
2022-11-28T10:05:17.181Z,6.90
2022-11-28T10:07:43.945Z,7.00
2022-11-28T10:10:38.327Z,7.00
2022-11-28T10:13:21.286Z,7.00
2022-11-28T10:16:26.786Z,7.00
2022-11-28T10:19:25.625Z,7.00
2022-11-28T10:22:02.623Z,7.00
2022-11-28T10:24:50.105Z,7.00
2022-11-28T10:27:21.190Z,7.00
2022-11-28T10:29:58.405Z,7.10
2022-11-28T10:32:40.679Z,7.10
2022-11-28T10:35:14.102Z,7.10
2022-11-28T10:37:40.907Z,7.10
2022-11-28T10:40:24.986Z,7.10
2022-11-28T10:43:24.298Z,7.10
2022-11-28T10:46:38.263Z,7.10
2022-11-28T10:49:17.317Z,7.10
2022-11-28T10:51:52.712Z,7.10
2022-11-28T10:54:45.409Z,7.10
2022-11-28T10:57:13.913Z,7.10
2022-11-28T11:00:13.475Z,7.20
2022-11-28T11:02:42.811Z,7.20
2022-11-28T11:05:17.244Z,7.20
2022-11-28T11:07:49.245Z,7.10
2022-11-28T11:10:26.704Z,7.20
2022-11-28T11:12:53.519Z,7.20
2022-11-28T11:15:29.906Z,7.30
2022-11-28T11:17:57.206Z,7.80
2022-11-28T11:20:29.972Z,8.00
2022-11-28T11:23:11.672Z,7.90
2022-11-28T11:25:50.056Z,7.80
2022-11-28T11:28:31.949Z,7.70
2022-11-28T11:31:00.786Z,7.60
2022-11-28T11:33:33.166Z,7.60
2022-11-28T11:36:02.211Z,7.60
2022-11-28T11:38:34.880Z,7.40
2022-11-28T11:41:30.488Z,7.40
2022-11-28T11:44:17.519Z,7.20
2022-11-28T11:46:54.521Z,7.20
2022-11-28T11:49:29.739Z,7.30
2022-11-28T11:51:58.025Z,7.30
2022-11-28T11:54:24.648Z,7.30
2022-11-28T11:57:05.752Z,7.30
2022-11-28T12:00:00.275Z,7.30
2022-11-28T12:02:40.384Z,7.40
2022-11-28T12:05:14.369Z,7.40
2022-11-28T12:07:51.983Z,7.30
2022-11-28T12:10:23.630Z,7.30
2022-11-28T12:12:50.499Z,7.30
2022-11-28T12:15:44.166Z,7.20
2022-11-28T12:18:35.738Z,7.30
2022-11-28T12:21:13.105Z,7.20
2022-11-28T12:24:03.730Z,7.20
2022-11-28T12:26:45.667Z,7.30
2022-11-28T12:29:28.961Z,7.40
2022-11-28T12:32:19.250Z,7.30
2022-11-28T12:34:51.728Z,7.40
2022-11-28T12:38:12.769Z,7.50
2022-11-28T12:41:19.953Z,7.50
2022-11-28T12:44:02.653Z,7.40
2022-11-28T12:46:38.544Z,8.00
2022-11-28T12:49:08.214Z,8.00
2022-11-28T12:51:53.732Z,7.80
2022-11-28T12:54:44.129Z,7.80
2022-11-28T12:57:35.938Z,8.60
2022-11-28T13:00:09.972Z,8.30
2022-11-28T13:02:58.232Z,8.30
2022-11-28T13:05:30.370Z,8.20
2022-11-28T13:08:34.279Z,8.10
2022-11-28T13:11:00.841Z,7.90
2022-11-28T13:13:43.573Z,7.80
2022-11-28T13:16:26.991Z,7.80
2022-11-28T13:19:18.215Z,7.80
2022-11-28T13:21:53.654Z,7.80
2022-11-28T13:24:23.033Z,7.80
2022-11-28T13:27:22.775Z,7.80
2022-11-28T13:30:22.394Z,7.80
2022-11-28T13:32:54.936Z,7.80
2022-11-28T13:35:23.169Z,7.90
2022-11-28T13:38:47.156Z,7.80
2022-11-28T13:42:00.921Z,7.90
2022-11-28T13:44:35.218Z,7.80
2022-11-28T13:47:27.623Z,7.90
2022-11-28T13:50:36.741Z,7.90
2022-11-28T13:53:12.615Z,7.90
2022-11-28T13:55:44.716Z,7.90
2022-11-28T13:58:24.731Z,7.90
2022-11-28T14:01:00.388Z,7.90
2022-11-28T14:03:27.184Z,7.90
2022-11-28T14:05:58.439Z,7.90
2022-11-28T14:08:35.733Z,8.00
2022-11-28T14:11:27.611Z,8.00
2022-11-28T14:13:57.693Z,7.90
2022-11-28T14:16:52.135Z,8.00
2022-11-28T14:19:46.271Z,8.00
2022-11-28T14:22:38.860Z,7.90
2022-11-28T14:25:11.126Z,8.00
2022-11-28T14:27:40.477Z,8.10
2022-11-28T14:30:22.232Z,8.00
2022-11-28T14:33:00.525Z,8.00
2022-11-28T14:35:52.384Z,8.00
2022-11-28T14:38:31.436Z,8.00
2022-11-28T14:41:01.997Z,8.10
2022-11-28T14:43:32.954Z,8.10
2022-11-28T14:46:15.412Z,8.10
2022-11-28T14:49:05.222Z,8.00
2022-11-28T14:51:47.161Z,9.30
2022-11-28T14:54:36.161Z,9.10
2022-11-28T14:57:38.475Z,8.90
2022-11-28T15:00:09.927Z,8.70
2022-11-28T15:03:04.163Z,8.50
2022-11-28T15:05:49.776Z,8.50
2022-11-28T15:08:41.552Z,8.30
2022-11-28T15:11:22.895Z,8.30
2022-11-28T15:14:09.856Z,8.20
2022-11-28T15:16:46.750Z,8.20
2022-11-28T15:19:22.159Z,8.20
2022-11-28T15:21:51.088Z,8.20
2022-11-28T15:24:30.560Z,8.20
2022-11-28T15:27:24.603Z,8.20
2022-11-28T15:29:56.591Z,8.20
2022-11-28T15:32:24.152Z,8.20
2022-11-28T15:34:54.685Z,8.20
2022-11-28T15:37:25.318Z,8.20
2022-11-28T15:39:52.432Z,8.20
2022-11-28T15:42:26.837Z,8.10
2022-11-28T15:44:59.416Z,8.20
2022-11-28T15:47:27.796Z,8.10
2022-11-28T15:50:19.873Z,8.10
2022-11-28T15:53:19.425Z,8.20
2022-11-28T15:55:47.621Z,8.20
2022-11-28T15:58:31.489Z,8.20
2022-11-28T16:01:15.339Z,8.20
2022-11-28T16:04:06.773Z,8.20
2022-11-28T16:06:36.685Z,8.20
2022-11-28T16:09:23.221Z,8.20
2022-11-28T16:11:52.803Z,8.30
2022-11-28T16:14:22.381Z,8.20
2022-11-28T16:16:49.386Z,8.30
2022-11-28T16:19:36.922Z,8.30
2022-11-28T16:22:10.687Z,8.40
2022-11-28T16:24:49.479Z,8.30
2022-11-28T16:27:28.061Z,8.30
2022-11-28T16:29:54.981Z,8.30
2022-11-28T16:32:34.009Z,8.30
2022-11-28T16:35:03.159Z,8.30
2022-11-28T16:37:32.070Z,8.30
2022-11-28T16:40:14.623Z,8.40
2022-11-28T16:42:41.505Z,8.30
2022-11-28T16:45:17.295Z,8.40
2022-11-28T16:47:45.557Z,8.30
2022-11-28T16:50:23.830Z,8.30
2022-11-28T16:52:55.515Z,8.30
2022-11-28T16:55:34.079Z,8.20
2022-11-28T16:58:07.170Z,8.10
2022-11-28T17:00:34.917Z,8.20
2022-11-28T17:03:01.824Z,8.30
2022-11-28T17:05:28.469Z,8.20
2022-11-28T17:07:55.477Z,8.30
2022-11-28T17:10:22.175Z,8.30
2022-11-28T17:12:48.812Z,8.40
2022-11-28T17:15:17.517Z,8.30
2022-11-28T17:17:44.154Z,8.30
2022-11-28T17:20:12.554Z,8.30
2022-11-28T17:22:45.128Z,8.30
2022-11-28T17:25:19.631Z,8.40
2022-11-28T17:27:48.028Z,8.40
2022-11-28T17:30:16.636Z,8.40
2022-11-28T17:32:43.589Z,8.30
2022-11-28T17:35:17.997Z,8.30
2022-11-28T17:37:44.727Z,8.40
2022-11-28T17:40:30.253Z,8.40
2022-11-28T17:42:56.903Z,8.40
2022-11-28T17:45:24.568Z,8.40
2022-11-28T17:47:51.459Z,8.40
2022-11-28T17:50:18.160Z,8.40
2022-11-28T17:52:44.859Z,8.30
2022-11-28T17:55:11.750Z,8.30
2022-11-28T17:57:38.608Z,8.40
2022-11-28T18:00:08.579Z,8.50
2022-11-28T18:02:41.311Z,8.40
2022-11-28T18:05:09.445Z,8.40
2022-11-28T18:07:36.109Z,8.40
2022-11-28T18:10:03.033Z,8.40
2022-11-28T18:12:29.874Z,8.40
2022-11-28T18:14:56.501Z,8.40
2022-11-28T18:17:23.094Z,8.40
2022-11-28T18:19:53.266Z,8.50
2022-11-28T18:22:23.849Z,8.40
2022-11-28T18:24:50.466Z,8.40
2022-11-28T18:27:17.360Z,8.40
2022-11-28T18:29:44.205Z,8.50
2022-11-28T18:32:11.102Z,8.50
2022-11-28T18:34:37.713Z,8.40
2022-11-28T18:37:05.007Z,8.40
2022-11-28T18:39:32.995Z,8.40
2022-11-28T18:42:00.073Z,8.40
2022-11-28T18:44:28.221Z,8.40
2022-11-28T18:46:54.927Z,8.50
2022-11-28T18:49:21.669Z,8.40
2022-11-28T18:51:48.419Z,8.40
2022-11-28T18:54:20.541Z,8.40
2022-11-28T18:56:47.973Z,8.50
2022-11-28T18:59:14.724Z,8.50
2022-11-28T19:01:41.456Z,8.50
2022-11-28T19:04:11.448Z,8.50
2022-11-28T19:06:39.896Z,8.50
2022-11-28T19:09:10.409Z,8.60
2022-11-28T19:11:37.931Z,8.60
2022-11-28T19:14:06.667Z,8.60
2022-11-28T19:16:35.925Z,8.60
2022-11-28T19:19:04.033Z,8.60
2022-11-28T19:21:36.268Z,8.60
2022-11-28T19:24:03.936Z,8.60
2022-11-28T19:26:33.349Z,8.60
2022-11-28T19:29:00.904Z,8.70
2022-11-28T19:31:30.533Z,8.70
2022-11-28T19:34:03.751Z,8.80
2022-11-28T19:36:37.264Z,8.80
2022-11-28T19:39:05.057Z,8.70
2022-11-28T19:41:32.214Z,8.70
2022-11-28T19:43:59.044Z,8.70
2022-11-28T19:46:31.844Z,8.70
2022-11-28T19:49:03.546Z,8.60
2022-11-28T19:51:30.433Z,8.70
2022-11-28T19:54:03.229Z,8.70
2022-11-28T19:56:32.192Z,8.70
2022-11-28T19:58:59.106Z,8.80
2022-11-28T20:01:26.806Z,8.80
2022-11-28T20:03:53.756Z,8.80
2022-11-28T20:06:27.060Z,8.70
2022-11-28T20:08:57.483Z,8.70
2022-11-28T20:11:26.622Z,8.70
2022-11-28T20:14:04.781Z,8.60
2022-11-28T20:16:32.133Z,8.50
2022-11-28T20:19:00.458Z,8.50
2022-11-28T20:21:28.375Z,8.60
2022-11-28T20:23:58.204Z,8.60
2022-11-28T20:26:26.778Z,8.80
2022-11-28T20:28:55.718Z,8.80
2022-11-28T20:31:26.934Z,8.80
2022-11-28T20:33:54.503Z,8.80
2022-11-28T20:36:23.101Z,8.80
2022-11-28T20:38:50.937Z,8.80
2022-11-28T20:41:19.323Z,8.70
2022-11-28T20:43:46.292Z,8.60
2022-11-28T20:46:16.919Z,8.70
2022-11-28T20:48:44.074Z,8.60
2022-11-28T20:51:13.672Z,8.50
2022-11-28T20:53:41.386Z,8.40
2022-11-28T20:56:20.228Z,8.30
2022-11-28T20:58:47.518Z,8.30
2022-11-28T21:01:20.733Z,8.30
2022-11-28T21:03:47.573Z,8.30
2022-11-28T21:06:14.213Z,8.40
2022-11-28T21:08:41.163Z,8.50
2022-11-28T21:11:10.384Z,8.60
2022-11-28T21:13:37.419Z,8.60
2022-11-28T21:16:09.703Z,8.60
2022-11-28T21:18:37.345Z,8.70
2022-11-28T21:21:17.476Z,8.80
2022-11-28T21:23:45.364Z,8.80
2022-11-28T21:26:14.828Z,8.80
2022-11-28T21:28:43.284Z,8.80
2022-11-28T21:31:13.520Z,8.80
2022-11-28T21:33:40.348Z,8.70
2022-11-28T21:36:08.215Z,8.70
2022-11-28T21:38:35.381Z,8.70
2022-11-28T21:41:02.240Z,8.80
2022-11-28T21:43:29.858Z,8.70
2022-11-28T21:46:07.308Z,8.60
2022-11-28T21:48:35.799Z,8.60
2022-11-28T21:51:03.622Z,8.60
2022-11-28T21:53:31.453Z,8.60
2022-11-28T21:56:02.980Z,8.60
2022-11-28T21:58:30.650Z,8.60
2022-11-28T22:01:00.106Z,8.70
2022-11-28T22:03:28.168Z,8.70
2022-11-28T22:06:23.003Z,8.70
2022-11-28T22:08:51.245Z,8.80
2022-11-28T22:11:19.369Z,8.80
2022-11-28T22:13:46.765Z,8.80
2022-11-28T22:16:19.550Z,8.70
2022-11-28T22:18:47.785Z,8.70
2022-11-28T22:24:05.138Z,8.80
2022-11-28T22:26:31.880Z,8.70
2022-11-28T22:29:03.809Z,8.70
2022-11-28T22:31:31.679Z,8.80
2022-11-28T22:33:58.538Z,8.70
2022-11-28T22:36:25.493Z,8.80
2022-11-28T22:38:57.438Z,8.70
2022-11-28T22:41:28.843Z,8.80
2022-11-28T22:44:00.069Z,8.80
2022-11-28T22:46:27.734Z,8.90
2022-11-28T22:48:55.226Z,8.70
2022-11-28T22:51:24.968Z,8.80
2022-11-28T22:53:57.383Z,8.90
2022-11-28T22:56:26.646Z,8.90
2022-11-28T22:58:53.833Z,8.90
2022-11-28T23:01:24.059Z,8.80
2022-11-28T23:03:51.547Z,8.90
2022-11-28T23:06:20.811Z,8.80
2022-11-28T23:08:53.938Z,8.80
2022-11-28T23:11:23.085Z,8.90
2022-11-28T23:13:51.174Z,8.90
2022-11-28T23:16:24.480Z,8.90
2022-11-28T23:18:54.429Z,8.80
2022-11-28T23:21:23.708Z,8.90
2022-11-28T23:23:51.409Z,8.90
2022-11-28T23:26:23.829Z,9.00
2022-11-28T23:28:51.820Z,9.00
2022-11-28T23:31:23.807Z,9.00
2022-11-28T23:33:51.337Z,9.00
2022-11-28T23:36:19.411Z,9.00
2022-11-28T23:38:48.022Z,9.00
2022-11-28T23:41:14.989Z,9.00
2022-11-28T23:43:41.747Z,9.00
2022-11-28T23:46:10.306Z,8.80
2022-11-28T23:48:37.399Z,8.90
2022-11-28T23:51:06.121Z,8.90
2022-11-28T23:53:34.079Z,8.90
2022-11-28T23:56:09.951Z,9.00
2022-11-28T23:58:37.697Z,9.00
